Ride Results

Benayeo NERC (15-05-2005)
Ride distance: 85.0 km

Outcomes - Benayeo NERC (15-05-2005)
Division No. of Entries Retired / DNE Completed Withdrawn Ineligible V/O Percentage Completed
HW 7 - 7 - - - 100.00%
MW 11 - 11 - - - 100.00%
LW 6 - 6 - - - 100.00%
Totals 24 - 24 - - - 100.00%
Results - Benayeo NERC (15-05-2005)
No. Rider Horse Place Time Leg Speeds Total
Km/Hr
H/R bpm
Heavyweight
103 Robert Punicki Zara Farm Shoman 1 5:16:00 18.7, 14.3 16.14 32, 47, 50 (Avg:48)
107 Ken Bradley Phoenix Park Epona 2 5:43:00 17.0, 13.3 14.87 36, 39, 46 (Avg:42)
106 Rod Mills Avondale Jay 3 6:20:00 14.6, 12.4 13.42 36, 48, 60 (Avg:54)
110 Bronya Kennedy Shangrala El Silverado 4 6:23:00 13.1, 13.4 13.32 32, 42, 53 (Avg:47)
102 Michael Heffernan Buffalo Bill 5 7:29:00 17.6, 8.6 11.36 35, 44, 50 (Avg:47)
101 Simon Plush Silver Cloud Sheravo 6 8:29:00 11.6, 8.9 10.02 35, 45, 48 (Avg:46)
109 Adrian Paech Shae 7 8:29:01 12.2, 8.6 10.02 34, 48, 52 (Avg:50)
Middleweight
84 Jody Smith Nihal Contessa 1 4:22:00 19.9, 19.0 19.47 32, 44, 40 (Avg:42)
85 Jil Bourton Syeda Simba 2 4:31:00 19.9, 17.8 18.82 34, 45, 52 (Avg:48)
83 Tania Drever Murrawonda Jatahn 3 4:31:01 19.9, 17.8 18.82 33, 40, 47 (Avg:43)
89 Sheryl Herbert Just Tarquis 3 4:31:01 19.0, 18.6 18.82 31, 46, 42 (Avg:44)
87 Karen Alderton Arabesque Celia 5 4:50:00 18.3, 16.9 17.59 32, 44, 48 (Avg:46)
80 Wendy Bootle Blue Bopp 6 5:27:00 17.0, 14.5 15.60 37, 43, 44 (Avg:43)
81 Melanie Scott Innovation 7 5:29:00 17.0, 14.3 15.50 30, 45, 52 (Avg:48)
91 Laura Salisbury Thorlindah Stock Broker 8 6:17:00 14.4, 12.7 13.53 36, 48, 52 (Avg:50)
86 Karina Heikkila Freya 9 6:21:00 14.1, 12.7 13.39 34, 42, 40 (Avg:41)
88 Sue Cavill Dalhope Kairo 10 6:23:00 13.1, 13.4 13.32 38, 40, 44 (Avg:42)
92 Mark Shillabeer Grayview Centerfold 11 6:52:00 12.4, 12.3 12.38 32, 41, 40 (Avg:40)
Lightweight
68 Cheryl Bullock Chip Chase Knight 1 4:22:00 19.9, 19.0 19.47 31, 34, 39 (Avg:36)
73 Jessica Remfry Ennerdale Meccano 2 4:31:00 19.0, 18.6 18.82 36, 33, 48 (Avg:40)
67 Trish Reeves Maya 3 5:17:00 19.1, 14.0 16.09 34, 40, 47 (Avg:43)
72 Petre Pretorius Sandine Belcoo 4 6:38:00 12.6, 12.9 12.81 32, 36, 44 (Avg:40)
71 Erin Reid Kaysand Mytai 5 6:38:01 12.6, 12.9 12.81 29, 38, 46 (Avg:42)
74 Leanne Watson Dueco 6 8:29:00 12.6, 8.4 10.02 31, 48, 50 (Avg:49)